createdAt,value
2018-06-03T00:00:06.798Z,4.30
2018-06-03T00:02:33.086Z,4.80
2018-06-03T00:04:59.232Z,4.80
2018-06-03T00:07:25.651Z,4.50
2018-06-03T00:09:51.812Z,4.60
2018-06-03T00:12:17.962Z,4.07
2018-06-03T00:14:44.133Z,4.60
2018-06-03T00:17:10.273Z,5.40
2018-06-03T00:19:36.450Z,4.07
2018-06-03T00:22:02.647Z,3.70
2018-06-03T00:24:29.076Z,3.53
2018-06-03T00:26:55.450Z,3.80
2018-06-03T00:29:21.587Z,5.10
2018-06-03T00:31:47.750Z,4.30
2018-06-03T00:34:13.884Z,3.97
2018-06-03T00:36:42.385Z,3.90
2018-06-03T00:39:09.051Z,4.80
2018-06-03T00:41:35.184Z,3.93
2018-06-03T00:44:01.370Z,4.80
2018-06-03T00:46:27.544Z,3.73
2018-06-03T00:48:54.139Z,4.30
2018-06-03T00:51:20.263Z,5.03
2018-06-03T00:53:46.399Z,4.63
2018-06-03T00:56:24.771Z,4.00
2018-06-03T00:58:50.931Z,4.27
2018-06-03T01:01:17.102Z,4.13
2018-06-03T01:03:43.550Z,4.17
2018-06-03T01:06:09.997Z,4.40
2018-06-03T01:08:36.133Z,3.80
2018-06-03T01:11:02.266Z,4.80
2018-06-03T01:13:28.453Z,4.90
2018-06-03T01:15:54.647Z,3.57
2018-06-03T01:18:20.870Z,3.87
2018-06-03T01:20:47.247Z,4.00
2018-06-03T01:23:13.523Z,4.40
2018-06-03T01:25:39.668Z,4.03
2018-06-03T01:28:05.798Z,3.97
2018-06-03T01:30:31.960Z,4.00
2018-06-03T01:32:58.113Z,3.80
2018-06-03T01:35:24.385Z,3.63
2018-06-03T01:37:50.516Z,3.83
2018-06-03T01:40:16.732Z,4.30
2018-06-03T01:42:42.907Z,3.57
2018-06-03T01:45:09.057Z,4.10
2018-06-03T01:47:35.240Z,3.83
2018-06-03T01:50:01.388Z,3.70
2018-06-03T01:52:27.683Z,4.37
2018-06-03T01:54:53.816Z,4.60
2018-06-03T01:57:20.046Z,4.10
2018-06-03T01:59:46.456Z,4.40
2018-06-03T02:02:12.608Z,4.20
2018-06-03T02:04:38.756Z,3.60
2018-06-03T02:07:04.881Z,3.60
2018-06-03T02:09:31.089Z,4.53
2018-06-03T02:11:57.221Z,3.87
2018-06-03T02:14:23.346Z,3.63
2018-06-03T02:16:49.521Z,4.33
2018-06-03T02:19:15.780Z,4.20
2018-06-03T02:21:41.916Z,5.73
2018-06-03T02:24:08.358Z,4.80
2018-06-03T02:26:34.552Z,3.90
2018-06-03T02:29:00.705Z,4.13
2018-06-03T02:31:26.828Z,4.90
2018-06-03T02:33:53.008Z,4.00
2018-06-03T02:36:19.163Z,3.83
2018-06-03T02:38:45.348Z,4.07
2018-06-03T02:41:11.498Z,3.60
2018-06-03T02:43:37.642Z,4.57
2018-06-03T02:46:03.827Z,4.20
2018-06-03T02:48:29.955Z,4.50
2018-06-03T02:50:56.122Z,3.57
2018-06-03T02:53:22.291Z,4.73
2018-06-03T02:55:48.573Z,3.60
2018-06-03T02:58:14.743Z,4.30
2018-06-03T03:00:40.886Z,4.30
2018-06-03T03:03:07.087Z,5.37
2018-06-03T03:05:33.233Z,3.80
2018-06-03T03:07:59.442Z,3.40
2018-06-03T03:10:25.594Z,4.40
2018-06-03T03:12:51.732Z,3.67
2018-06-03T03:15:17.889Z,4.13
2018-06-03T03:17:44.037Z,4.73
2018-06-03T03:20:10.315Z,3.60
2018-06-03T03:22:36.464Z,3.70
2018-06-03T03:25:02.612Z,3.47
2018-06-03T03:27:28.898Z,3.40
2018-06-03T03:29:55.028Z,3.83
2018-06-03T03:32:21.155Z,3.90
2018-06-03T03:34:47.336Z,4.40
2018-06-03T03:37:13.512Z,4.13
2018-06-03T03:39:39.679Z,4.13
2018-06-03T03:42:05.845Z,3.77
2018-06-03T03:44:31.971Z,3.60
2018-06-03T03:46:58.115Z,4.00
2018-06-03T03:49:24.301Z,3.73
2018-06-03T03:51:50.435Z,3.90
2018-06-03T03:54:16.611Z,4.47
2018-06-03T03:56:42.743Z,3.17
2018-06-03T03:59:09.252Z,3.57
2018-06-03T04:01:35.415Z,4.83
2018-06-03T04:04:01.549Z,3.20
2018-06-03T04:06:27.811Z,4.17
2018-06-03T04:08:53.948Z,4.10
2018-06-03T04:11:20.083Z,3.83
2018-06-03T04:13:46.373Z,3.50
2018-06-03T04:16:12.499Z,5.70
2018-06-03T04:18:38.739Z,3.60
2018-06-03T04:21:05.410Z,3.27
2018-06-03T04:23:31.728Z,4.13
2018-06-03T04:25:57.856Z,3.33
2018-06-03T04:28:24.027Z,3.60
2018-06-03T04:30:50.209Z,3.90
2018-06-03T04:33:16.348Z,5.50
2018-06-03T04:35:42.507Z,4.20
2018-06-03T04:38:08.667Z,3.80
2018-06-03T04:40:34.812Z,3.67
2018-06-03T04:43:00.948Z,3.53
2018-06-03T04:45:27.480Z,3.83
2018-06-03T04:47:53.605Z,3.63
2018-06-03T04:50:19.734Z,4.30
2018-06-03T04:52:45.895Z,3.20
2018-06-03T04:55:12.033Z,3.33
2018-06-03T04:57:38.207Z,4.07
2018-06-03T05:00:04.367Z,4.50
2018-06-03T05:02:30.684Z,3.87
2018-06-03T05:04:56.819Z,3.73
2018-06-03T05:07:22.943Z,4.27
2018-06-03T05:09:49.220Z,4.13
2018-06-03T05:12:15.374Z,3.70
2018-06-03T05:14:41.518Z,3.53
2018-06-03T05:17:07.763Z,5.47
2018-06-03T05:19:34.136Z,3.70
2018-06-03T05:22:00.404Z,3.80
2018-06-03T05:24:26.786Z,4.23
2018-06-03T05:26:52.924Z,5.00
2018-06-03T05:29:19.587Z,3.70
2018-06-03T05:31:45.731Z,3.43
2018-06-03T05:34:11.868Z,3.23
2018-06-03T05:36:38.040Z,3.43
2018-06-03T05:39:04.266Z,3.90
2018-06-03T05:41:30.447Z,5.50
2018-06-03T05:43:56.588Z,4.47
2018-06-03T05:46:22.763Z,4.00
2018-06-03T05:48:49.167Z,3.67
2018-06-03T05:51:15.499Z,3.10
2018-06-03T05:53:41.643Z,3.47
2018-06-03T05:56:07.789Z,3.30
2018-06-03T05:58:34.318Z,3.30
2018-06-03T06:01:00.442Z,3.87
2018-06-03T06:03:26.603Z,5.50
2018-06-03T06:05:52.773Z,4.03
2018-06-03T06:08:18.952Z,3.63
2018-06-03T06:10:45.162Z,3.87
2018-06-03T06:13:11.295Z,3.37
2018-06-03T06:15:37.437Z,3.73
2018-06-03T06:18:03.609Z,4.23
2018-06-03T06:20:29.769Z,4.93
2018-06-03T06:22:55.921Z,4.20
2018-06-03T06:25:22.144Z,4.73
2018-06-03T06:27:48.468Z,4.93
2018-06-03T06:30:14.608Z,3.33
2018-06-03T06:32:40.808Z,4.00
2018-06-03T06:35:06.972Z,3.70
2018-06-03T06:37:33.122Z,3.43
2018-06-03T06:39:59.467Z,4.13
2018-06-03T06:42:26.014Z,4.33
2018-06-03T06:44:52.521Z,4.47
2018-06-03T06:47:18.759Z,4.27
2018-06-03T06:49:45.212Z,5.20
2018-06-03T06:52:11.503Z,4.13
2018-06-03T06:54:37.933Z,4.00
2018-06-03T06:57:04.084Z,4.03
2018-06-03T06:59:30.704Z,4.50
2018-06-03T07:01:56.944Z,4.07
2018-06-03T07:04:23.337Z,3.77
2018-06-03T07:06:49.572Z,3.57
2018-06-03T07:09:15.965Z,3.60
2018-06-03T07:11:42.242Z,5.70
2018-06-03T07:14:08.671Z,6.07
2018-06-03T07:16:34.823Z,3.20
2018-06-03T07:19:02.800Z,5.87
2018-06-03T07:21:28.926Z,4.10
2018-06-03T07:23:55.057Z,8.17
2018-06-03T07:26:21.240Z,4.53
2018-06-03T07:28:47.359Z,5.80
2018-06-03T07:31:13.720Z,6.20
2018-06-03T07:33:39.860Z,5.57
2018-06-03T07:36:05.995Z,3.90
2018-06-03T07:38:32.200Z,4.20
2018-06-03T07:40:58.349Z,4.20
2018-06-03T07:43:24.491Z,3.50
2018-06-03T07:45:50.754Z,3.80
2018-06-03T07:48:16.912Z,4.50
2018-06-03T07:50:43.067Z,6.00
2018-06-03T07:53:09.266Z,3.77
2018-06-03T07:55:35.412Z,4.60
2018-06-03T07:58:01.581Z,5.53
2018-06-03T08:00:27.837Z,4.97
2018-06-03T08:02:53.992Z,3.50
2018-06-03T08:05:20.173Z,4.60
2018-06-03T08:07:46.379Z,5.20
2018-06-03T08:10:12.552Z,3.83
2018-06-03T08:12:39.025Z,4.07
2018-06-03T08:15:05.348Z,5.33
2018-06-03T08:17:31.490Z,4.07
2018-06-03T08:20:28.574Z,3.73
2018-06-03T08:22:56.428Z,4.87
2018-06-03T08:25:24.093Z,4.23
2018-06-03T08:27:51.933Z,3.70
2018-06-03T08:30:20.264Z,5.03
2018-06-03T08:32:48.434Z,6.43
2018-06-03T08:35:16.354Z,4.40
2018-06-03T08:37:44.562Z,3.90
2018-06-03T08:40:12.266Z,3.73
2018-06-03T08:42:39.965Z,3.83
2018-06-03T08:45:07.842Z,4.33
2018-06-03T08:47:36.194Z,5.23
2018-06-03T08:50:04.427Z,3.80
2018-06-03T08:52:32.336Z,4.93
2018-06-03T08:55:00.017Z,4.60
2018-06-03T08:57:27.776Z,5.10
2018-06-03T08:59:55.452Z,5.00
2018-06-03T09:02:23.266Z,4.50
2018-06-03T09:04:51.009Z,4.20
2018-06-03T09:07:19.958Z,5.07
2018-06-03T09:09:49.228Z,5.07
2018-06-03T09:12:17.420Z,5.00
2018-06-03T09:14:45.568Z,3.80
2018-06-03T09:17:13.762Z,5.40
2018-06-03T09:19:41.633Z,8.20
2018-06-03T09:22:09.963Z,6.10
2018-06-03T09:24:37.777Z,5.03
2018-06-03T09:27:05.828Z,5.13
2018-06-03T09:29:33.834Z,4.40
2018-06-03T09:32:01.532Z,3.93
2018-06-03T09:34:29.384Z,4.03
2018-06-03T09:36:57.568Z,4.37
2018-06-03T09:39:25.556Z,5.93
2018-06-03T09:41:53.218Z,4.93
2018-06-03T09:44:20.906Z,5.50
2018-06-03T09:46:48.621Z,4.07
2018-06-03T09:49:17.203Z,4.63
2018-06-03T09:51:45.151Z,4.97
2018-06-03T09:54:12.809Z,5.47
2018-06-03T09:56:40.783Z,9.00
2018-06-03T09:59:08.444Z,4.70
2018-06-03T10:01:36.360Z,7.80
2018-06-03T10:04:05.456Z,3.90
2018-06-03T10:06:33.528Z,9.10
2018-06-03T10:09:05.641Z,5.40
2018-06-03T10:11:33.310Z,5.30
2018-06-03T10:14:01.137Z,4.93
2018-06-03T10:16:29.554Z,4.67
2018-06-03T10:18:57.292Z,4.80
2018-06-03T10:21:25.092Z,5.47
2018-06-03T10:23:53.040Z,3.80
2018-06-03T10:26:21.443Z,3.83
2018-06-03T10:28:49.736Z,3.53
2018-06-03T10:31:25.431Z,3.73
2018-06-03T10:33:54.050Z,4.07
2018-06-03T10:36:22.559Z,4.97
2018-06-03T10:38:50.247Z,9.30
2018-06-03T10:41:17.911Z,5.03
2018-06-03T10:43:45.730Z,4.40
2018-06-03T10:46:13.664Z,3.70
2018-06-03T10:48:41.311Z,3.10
2018-06-03T10:51:09.280Z,3.47
2018-06-03T10:53:36.975Z,3.83
2018-06-03T10:56:05.366Z,3.30
2018-06-03T10:58:33.025Z,3.57
2018-06-03T11:01:00.719Z,5.07
2018-06-03T11:03:28.413Z,3.50
2018-06-03T11:05:56.145Z,3.93
2018-06-03T11:08:23.938Z,3.13
2018-06-03T11:10:51.740Z,3.50
2018-06-03T11:13:19.397Z,3.50
2018-06-03T11:15:47.074Z,3.83
2018-06-03T11:18:15.043Z,4.57
2018-06-03T11:20:43.013Z,3.70
2018-06-03T11:23:10.688Z,3.60
2018-06-03T11:25:38.363Z,4.00
2018-06-03T11:28:06.032Z,3.60
2018-06-03T11:30:34.073Z,6.03
2018-06-03T11:33:02.006Z,3.80
2018-06-03T11:35:29.683Z,3.40
2018-06-03T11:37:57.383Z,4.20
2018-06-03T11:40:25.057Z,3.73
2018-06-03T11:42:53.408Z,3.67
2018-06-03T11:45:21.047Z,3.37
2018-06-03T11:47:48.691Z,3.40
2018-06-03T11:50:16.752Z,3.73
2018-06-03T11:52:44.429Z,4.03
2018-06-03T11:55:12.253Z,3.13
2018-06-03T11:58:53.579Z,3.50
2018-06-03T12:01:21.404Z,3.33
2018-06-03T12:03:49.128Z,4.83
2018-06-03T12:06:16.795Z,4.80
2018-06-03T12:08:44.625Z,3.97
2018-06-03T12:11:12.549Z,4.00
2018-06-03T12:13:40.759Z,3.73
2018-06-03T12:16:08.428Z,4.07
2018-06-03T12:18:36.106Z,3.60
2018-06-03T12:21:03.800Z,2.77
2018-06-03T12:23:32.237Z,3.80
2018-06-03T12:25:59.920Z,3.50
2018-06-03T12:28:27.600Z,3.93
2018-06-03T12:30:55.643Z,3.33
2018-06-03T12:33:23.548Z,3.60
2018-06-03T12:35:51.532Z,3.10
2018-06-03T12:38:19.695Z,4.27
2018-06-03T12:40:47.368Z,4.87
2018-06-03T12:43:15.334Z,4.20
2018-06-03T12:45:43.279Z,3.17
2018-06-03T12:48:10.971Z,4.30
2018-06-03T12:50:38.615Z,3.00
2018-06-03T12:53:06.295Z,4.43
2018-06-03T12:55:34.108Z,3.53
2018-06-03T12:58:01.777Z,3.50
2018-06-03T13:00:29.706Z,3.20
2018-06-03T13:02:57.389Z,3.00
2018-06-03T13:05:25.122Z,3.27
2018-06-03T13:07:52.815Z,3.60
2018-06-03T13:10:20.504Z,3.20
2018-06-03T13:12:48.178Z,4.00
2018-06-03T13:15:15.972Z,3.40
2018-06-03T13:17:43.645Z,4.13
2018-06-03T13:20:11.304Z,3.37
2018-06-03T13:22:39.489Z,4.20
2018-06-03T13:25:07.750Z,3.50
2018-06-03T13:27:35.439Z,3.27
2018-06-03T13:30:03.145Z,3.50
2018-06-03T13:32:31.117Z,3.50
2018-06-03T13:34:58.820Z,3.30
2018-06-03T13:37:26.512Z,2.93
2018-06-03T13:39:54.608Z,4.10
2018-06-03T13:42:22.289Z,3.90
2018-06-03T13:44:49.930Z,3.97
2018-06-03T13:47:18.037Z,3.63
2018-06-03T13:49:45.680Z,3.90
2018-06-03T13:52:13.323Z,3.57
2018-06-03T13:54:41.340Z,3.70
2018-06-03T13:57:09.335Z,3.07
2018-06-03T13:59:37.396Z,4.00
2018-06-03T14:02:05.077Z,3.20
2018-06-03T14:04:32.812Z,2.80
2018-06-03T14:07:00.753Z,3.47
2018-06-03T14:09:28.460Z,3.30
2018-06-03T14:11:56.229Z,3.20
2018-06-03T14:14:23.877Z,3.40
2018-06-03T14:16:51.550Z,5.80
2018-06-03T14:19:19.264Z,3.47
2018-06-03T14:21:46.949Z,2.70
2018-06-03T14:24:14.603Z,3.10
2018-06-03T14:26:42.396Z,3.43
2018-06-03T14:29:10.059Z,2.77
2018-06-03T14:31:37.745Z,3.30
2018-06-03T14:34:05.714Z,3.20
2018-06-03T14:36:33.361Z,3.03
2018-06-03T14:39:01.043Z,3.20
2018-06-03T14:41:28.719Z,4.20
2018-06-03T14:43:56.447Z,3.03
2018-06-03T14:46:24.611Z,2.87
2018-06-03T14:48:52.292Z,3.07
2018-06-03T14:51:20.262Z,2.67
2018-06-03T14:53:47.928Z,3.13
2018-06-03T14:56:15.599Z,2.70
2018-06-03T14:58:43.286Z,4.17
2018-06-03T15:01:10.968Z,2.47
2018-06-03T15:03:38.915Z,2.80
2018-06-03T15:06:06.726Z,3.03
2018-06-03T15:08:34.447Z,2.60
2018-06-03T15:11:02.111Z,3.00
2018-06-03T15:13:29.826Z,3.00
2018-06-03T15:15:57.720Z,2.90
2018-06-03T15:18:25.810Z,3.80
2018-06-03T15:20:53.779Z,2.70
2018-06-03T15:23:21.517Z,2.67
2018-06-03T15:25:49.259Z,3.10
2018-06-03T15:28:17.240Z,2.70
2018-06-03T15:30:44.893Z,2.67
2018-06-03T15:33:12.597Z,2.90
2018-06-03T15:35:40.268Z,2.37
2018-06-03T15:38:08.247Z,3.00
2018-06-03T15:40:35.955Z,3.00
2018-06-03T15:43:03.965Z,2.53
2018-06-03T15:45:31.673Z,2.63
2018-06-03T15:47:59.381Z,2.70
2018-06-03T15:50:27.082Z,3.30
2018-06-03T15:52:54.947Z,2.73
2018-06-03T15:55:22.743Z,3.07
2018-06-03T15:57:50.452Z,2.63
2018-06-03T16:00:18.149Z,2.77
2018-06-03T16:02:45.867Z,3.27
2018-06-03T16:05:13.553Z,2.97
2018-06-03T16:07:41.259Z,2.80
2018-06-03T16:10:09.285Z,2.90
2018-06-03T16:12:37.600Z,2.40
2018-06-03T16:15:05.579Z,2.77
2018-06-03T16:17:33.308Z,2.50
2018-06-03T16:20:01.013Z,2.50
2018-06-03T16:22:28.681Z,3.33
2018-06-03T16:24:56.391Z,2.50
2018-06-03T16:27:24.056Z,3.03
2018-06-03T16:29:51.788Z,2.40
2018-06-03T16:32:19.756Z,3.07
2018-06-03T16:34:47.496Z,2.87
2018-06-03T16:37:15.173Z,2.77
2018-06-03T16:39:43.173Z,3.03
2018-06-03T16:42:10.858Z,2.27
2018-06-03T16:44:38.533Z,2.73
2018-06-03T16:47:06.223Z,2.63
2018-06-03T16:49:33.894Z,2.47
2018-06-03T16:52:01.714Z,2.50
2018-06-03T16:54:29.421Z,2.33
2018-06-03T16:56:57.107Z,3.47
2018-06-03T16:59:24.864Z,3.00
2018-06-03T17:01:52.527Z,2.60
2018-06-03T17:04:20.257Z,2.80
2018-06-03T17:06:48.275Z,2.37
2018-06-03T17:09:15.946Z,3.30
2018-06-03T17:11:43.937Z,2.40
2018-06-03T17:14:11.753Z,2.77
2018-06-03T17:16:39.726Z,2.60
2018-06-03T17:19:07.440Z,2.57
2018-06-03T17:21:35.587Z,2.10
2018-06-03T17:24:03.266Z,3.00
2018-06-03T17:26:30.943Z,3.10
2018-06-03T17:28:58.649Z,2.50
2018-06-03T17:31:26.341Z,2.30
2018-06-03T17:33:54.284Z,2.33
2018-06-03T17:36:22.150Z,2.70
2018-06-03T17:38:51.269Z,2.00
2018-06-03T17:41:19.475Z,2.60
2018-06-03T17:43:47.393Z,2.63
2018-06-03T17:46:15.183Z,2.40
2018-06-03T17:48:43.148Z,2.70
2018-06-03T17:51:10.827Z,2.40
2018-06-03T17:53:38.508Z,2.73
2018-06-03T17:56:06.258Z,2.37
2018-06-03T17:58:33.949Z,3.13
2018-06-03T18:01:01.652Z,2.87
2018-06-03T18:03:30.897Z,2.40
2018-06-03T18:05:58.950Z,3.67
2018-06-03T18:08:26.942Z,2.20
2018-06-03T18:10:54.764Z,2.73
2018-06-03T18:13:23.072Z,3.07
2018-06-03T18:15:51.287Z,2.30
2018-06-03T18:18:18.986Z,2.87
2018-06-03T18:20:46.878Z,2.13
2018-06-03T18:23:14.960Z,2.40
2018-06-03T18:25:42.855Z,2.30
2018-06-03T18:28:10.594Z,2.50
2018-06-03T18:30:38.597Z,2.50
2018-06-03T18:33:06.469Z,2.17
2018-06-03T18:35:34.352Z,2.47
2018-06-03T18:38:03.093Z,2.37
2018-06-03T18:40:30.836Z,2.60
2018-06-03T18:42:59.371Z,2.37
2018-06-03T18:45:29.294Z,2.80
2018-06-03T18:47:56.972Z,2.20
2018-06-03T18:50:24.676Z,2.30
2018-06-03T18:52:53.495Z,2.00
2018-06-03T18:55:21.852Z,2.53
2018-06-03T18:57:50.531Z,1.87
2018-06-03T19:00:18.449Z,2.67
2018-06-03T19:02:46.106Z,1.90
2018-06-03T19:05:20.465Z,2.60
2018-06-03T19:07:48.461Z,2.77
2018-06-03T19:10:16.862Z,2.40
2018-06-03T19:12:44.576Z,2.70
2018-06-03T19:15:12.237Z,2.33
2018-06-03T19:17:39.969Z,2.33
2018-06-03T19:20:07.679Z,2.53
2018-06-03T19:22:35.735Z,2.43
2018-06-03T19:25:04.356Z,2.23
2018-06-03T19:27:32.075Z,2.67
2018-06-03T19:29:59.749Z,2.33
2018-06-03T19:32:27.414Z,2.30
2018-06-03T19:34:55.085Z,2.10
2018-06-03T19:37:22.745Z,2.57
2018-06-03T19:39:50.530Z,2.37
2018-06-03T19:42:18.204Z,2.23
2018-06-03T19:44:46.139Z,2.30
2018-06-03T19:47:13.836Z,2.50
2018-06-03T19:49:41.859Z,2.40
2018-06-03T19:52:09.571Z,3.73
2018-06-03T19:54:37.255Z,2.50
2018-06-03T19:57:05.559Z,2.20
2018-06-03T19:59:33.241Z,2.20
2018-06-03T20:02:01.108Z,2.47
2018-06-03T20:04:29.996Z,2.20
2018-06-03T20:09:51.219Z,2.33
2018-06-03T20:12:18.930Z,2.17
2018-06-03T20:14:46.534Z,2.73
2018-06-03T20:17:14.994Z,2.30
2018-06-03T20:19:42.618Z,2.07
2018-06-03T20:22:10.547Z,2.80
2018-06-03T20:24:38.531Z,2.20
2018-06-03T20:27:06.246Z,2.43
2018-06-03T20:29:34.175Z,2.03
2018-06-03T20:32:02.123Z,2.70
2018-06-03T20:34:30.300Z,2.20
2018-06-03T20:36:57.986Z,2.40
2018-06-03T20:39:25.973Z,2.37
2018-06-03T20:41:54.012Z,2.43
2018-06-03T20:44:21.761Z,2.40
2018-06-03T20:46:50.012Z,1.90
2018-06-03T20:49:17.611Z,2.10
2018-06-03T20:51:45.225Z,2.37
2018-06-03T20:54:12.857Z,2.00
2018-06-03T20:56:40.828Z,2.20
2018-06-03T20:59:08.678Z,2.10
2018-06-03T21:01:37.296Z,2.40
2018-06-03T21:04:05.454Z,2.27
2018-06-03T21:06:33.076Z,2.33
2018-06-03T21:09:00.742Z,2.50
2018-06-03T21:11:28.998Z,2.27
2018-06-03T21:13:57.183Z,2.60
2018-06-03T21:16:25.152Z,2.47
2018-06-03T21:18:53.425Z,2.63
2018-06-03T21:21:21.394Z,2.60
2018-06-03T21:23:49.565Z,2.20
2018-06-03T21:26:17.385Z,2.40
2018-06-03T21:28:45.468Z,3.00
2018-06-03T21:31:13.090Z,2.53
2018-06-03T21:33:40.969Z,2.57
2018-06-03T21:36:09.031Z,2.40
2018-06-03T21:38:36.952Z,1.80
2018-06-03T21:41:04.574Z,2.27
2018-06-03T21:43:32.178Z,2.10
2018-06-03T21:46:00.083Z,2.90
2018-06-03T21:48:28.266Z,2.93
2018-06-03T21:50:56.557Z,2.23
2018-06-03T21:53:24.432Z,2.60
2018-06-03T21:55:52.345Z,2.47
2018-06-03T21:58:20.725Z,2.07
2018-06-03T22:00:48.354Z,2.60
2018-06-03T22:03:16.206Z,2.50
2018-06-03T22:05:44.669Z,2.40
2018-06-03T22:08:12.597Z,2.30
2018-06-03T22:10:40.543Z,2.53
2018-06-03T22:13:08.583Z,2.03
2018-06-03T22:15:36.222Z,2.87
2018-06-03T22:18:04.049Z,2.17
2018-06-03T22:20:31.685Z,2.90
2018-06-03T22:22:59.658Z,2.37
2018-06-03T22:25:27.703Z,2.40
2018-06-03T22:27:55.308Z,2.20
2018-06-03T22:30:23.307Z,2.20
2018-06-03T22:32:51.267Z,2.50
2018-06-03T22:35:18.901Z,2.10
2018-06-03T22:37:46.888Z,2.20
2018-06-03T22:40:14.820Z,2.27
2018-06-03T22:42:42.840Z,1.87
2018-06-03T22:45:10.478Z,2.50
2018-06-03T22:47:38.119Z,2.10
2018-06-03T22:50:06.094Z,2.13
2018-06-03T22:52:33.725Z,2.40
2018-06-03T22:55:01.649Z,2.27
2018-06-03T22:57:41.674Z,2.40
2018-06-03T23:00:09.460Z,2.20
2018-06-03T23:02:37.060Z,2.27
2018-06-03T23:05:05.383Z,3.03
2018-06-03T23:07:33.010Z,2.50
2018-06-03T23:10:00.901Z,2.27
2018-06-03T23:12:28.558Z,2.43
2018-06-03T23:14:56.150Z,2.30
2018-06-03T23:17:23.778Z,2.30
2018-06-03T23:19:51.441Z,2.70
2018-06-03T23:22:19.807Z,1.97
2018-06-03T23:24:47.730Z,2.43
2018-06-03T23:27:15.701Z,2.20
2018-06-03T23:29:43.765Z,2.30
2018-06-03T23:32:11.973Z,2.30
2018-06-03T23:34:40.244Z,2.40
2018-06-03T23:37:07.959Z,2.20
2018-06-03T23:39:35.955Z,2.43
2018-06-03T23:42:03.578Z,2.10
2018-06-03T23:44:31.479Z,2.27
2018-06-03T23:46:59.627Z,2.33
2018-06-03T23:49:27.289Z,3.00
2018-06-03T23:51:55.546Z,2.43
2018-06-03T23:54:23.764Z,2.37
2018-06-03T23:56:51.943Z,2.83
2018-06-03T23:59:19.907Z,2.77
